Time;durP1;ratioP1;P1;durP2;ratioP2;P2;SDS_P1;SDS_P2;PMS_P1;PMS_P2;Temp;Humidity;BMP_temperature;BMP_pressure;BME280_temperature;BME280_humidity;BME280_pressure;Samples;Min_cycle;Max_cycle;Signal;HPM_P1;HPM_P2
2023/07/12 00:01:16;;;;;;;;;;;;;;;26.62;25.44;95659.78;6171295;28;20024;-71
2023/07/12 00:04:17;;;;;;;;;;;;;;;26.77;25.39;95665.56;6171086;28;20317;-71
2023/07/12 00:07:21;;;;;;;;;;;;;;;26.82;25.68;95660.28;6154450;28;19922;-71
2023/07/12 00:10:24;;;;;;;;;;;;;;;26.58;25.53;95653.16;6171057;28;19922;-70
2023/07/12 00:13:27;;;;;;;;;;;;;;;26.59;25.79;95649.44;6158593;28;20320;-71
2023/07/12 00:16:33;;;;;;;;;;;;;;;26.43;25.54;95657.06;6158430;28;19926;-70
2023/07/12 00:19:37;;;;;;;;;;;;;;;26.38;25.56;95646.19;6175565;28;19922;-71
2023/07/12 00:22:40;;;;;;;;;;;;;;;26.59;25.56;95655.66;6175668;28;19922;-71
2023/07/12 00:25:46;;;;;;;;;;;;;;;26.38;25.78;95651.56;6175840;28;19929;-70
2023/07/12 00:28:47;;;;;;;;;;;;;;;26.13;26.35;95661.66;6175251;28;19922;-71
2023/07/12 00:31:51;;;;;;;;;;;;;;;26.04;26.37;95657.59;6175428;28;20431;-71
2023/07/12 00:34:55;;;;;;;;;;;;;;;26.06;26.36;95658.22;6158111;28;19972;-71
2023/07/12 00:37:59;;;;;;;;;;;;;;;26.32;25.96;95659.72;6174900;28;19928;-71
2023/07/12 00:41:19;;;;;;;;;;;;;;;26.35;25.95;95664.66;6175546;28;20300;-71
2023/07/12 00:44:24;;;;;;;;;;;;;;;26.21;25.86;95669.41;6174649;28;20011;-70
2023/07/12 00:47:25;;;;;;;;;;;;;;;26.27;26.05;95673.91;6174622;28;19922;-70
2023/07/12 00:50:28;;;;;;;;;;;;;;;26.19;26.41;95671.53;6157798;28;20303;-70
2023/07/12 00:53:30;;;;;;;;;;;;;;;26.17;26.39;95670.94;6174459;28;20357;-70
2023/07/12 00:56:33;;;;;;;;;;;;;;;26.17;26.18;95673.63;6174509;28;19922;-71
2023/07/12 00:59:35;;;;;;;;;;;;;;;26.15;26.36;95681.09;6174510;28;19922;-70
2023/07/12 01:02:39;;;;;;;;;;;;;;;26.10;26.41;95679.09;6157304;28;20308;-70
2023/07/12 01:05:43;;;;;;;;;;;;;;;26.07;26.23;95694.88;6174118;28;20085;-71
2023/07/12 01:08:47;;;;;;;;;;;;;;;26.20;26.85;95700.94;6174509;28;19922;-69
2023/07/12 01:11:49;;;;;;;;;;;;;;;26.30;27.20;95699.56;6174149;28;19929;-71
2023/07/12 01:14:50;;;;;;;;;;;;;;;26.11;27.42;95696.91;6173836;28;20340;-71
2023/07/12 01:17:51;;;;;;;;;;;;;;;26.19;27.23;95704.69;6173913;28;19922;-70
2023/07/12 01:21:08;;;;;;;;;;;;;;;26.02;27.64;95694.75;6174391;28;20323;-70
2023/07/12 01:24:10;;;;;;;;;;;;;;;25.82;28.14;95703.00;6156179;28;19922;-70
2023/07/12 01:27:14;;;;;;;;;;;;;;;25.86;27.90;95699.69;6174462;28;19925;-71
2023/07/12 01:30:17;;;;;;;;;;;;;;;25.95;27.77;95711.81;6173869;28;19929;-70
2023/07/12 01:33:18;;;;;;;;;;;;;;;25.82;28.51;95709.25;6173729;28;19917;-70
2023/07/12 01:36:21;;;;;;;;;;;;;;;26.01;28.05;95709.28;6173471;28;19977;-71
2023/07/12 01:39:24;;;;;;;;;;;;;;;25.98;28.50;95714.06;6172315;28;20336;-71
2023/07/12 01:42:30;;;;;;;;;;;;;;;26.04;28.31;95716.91;6173882;28;19922;-71
2023/07/12 01:45:30;;;;;;;;;;;;;;;26.18;28.05;95707.59;6173287;28;19925;-69
2023/07/12 01:48:36;;;;;;;;;;;;;;;26.32;27.90;95711.78;6173926;28;19921;-70
2023/07/12 01:51:39;;;;;;;;;;;;;;;26.26;27.66;95707.31;6173564;28;19921;-71
2023/07/12 01:54:44;;;;;;;;;;;;;;;26.50;27.53;95732.56;6173668;28;19918;-71
2023/07/12 01:57:45;;;;;;;;;;;;;;;26.43;27.69;95732.59;6173244;28;19921;-70
2023/07/12 02:00:48;;;;;;;;;;;;;;;26.43;27.61;95724.50;6172641;28;20064;-71
2023/07/12 02:03:53;;;;;;;;;;;;;;;26.58;27.62;95723.31;6140359;28;19928;-71
2023/07/12 02:06:54;;;;;;;;;;;;;;;26.77;27.33;95730.31;6173299;28;20041;-71
2023/07/12 02:10:08;;;;;;;;;;;;;;;27.18;27.62;95739.53;6173253;28;19922;-71
2023/07/12 02:13:12;;;;;;;;;;;;;;;27.34;27.66;95739.91;6172684;28;20032;-72
2023/07/12 02:16:13;;;;;;;;;;;;;;;27.35;27.46;95744.25;6173181;28;19937;-71
2023/07/12 02:19:16;;;;;;;;;;;;;;;27.57;27.53;95737.22;6172144;28;19929;-71
2023/07/12 02:22:17;;;;;;;;;;;;;;;27.39;27.52;95756.22;6172451;28;19929;-70
2023/07/12 02:25:21;;;;;;;;;;;;;;;27.44;27.60;95759.88;6155536;28;19980;-71
2023/07/12 02:28:22;;;;;;;;;;;;;;;27.30;28.05;95775.47;6172439;28;19938;-71
2023/07/12 02:31:31;;;;;;;;;;;;;;;27.40;28.37;95785.69;6172178;28;19961;-70
2023/07/12 02:34:37;;;;;;;;;;;;;;;27.24;28.70;95779.09;6172433;28;20495;-71
2023/07/12 02:37:41;;;;;;;;;;;;;;;27.52;29.14;95778.47;6172732;28;19921;-71
2023/07/12 02:40:42;;;;;;;;;;;;;;;27.24;29.68;95768.31;6171624;28;20412;-71
2023/07/12 02:43:46;;;;;;;;;;;;;;;27.36;30.08;95778.31;6155717;28;19922;-70
2023/07/12 02:46:52;;;;;;;;;;;;;;;27.23;30.56;95779.31;6172541;28;19922;-71
2023/07/12 02:49:54;;;;;;;;;;;;;;;27.34;30.68;95788.50;6171660;28;20303;-70
2023/07/12 02:52:55;;;;;;;;;;;;;;;27.11;31.29;95773.88;6171773;28;19929;-71
2023/07/12 02:55:59;;;;;;;;;;;;;;;27.14;31.49;95789.59;6154131;28;19949;-70
2023/07/12 02:59:06;;;;;;;;;;;;;;;27.15;31.71;95793.97;6154865;28;20411;-70
2023/07/12 03:02:07;;;;;;;;;;;;;;;27.26;31.93;95801.31;6154505;28;19922;-70
2023/07/12 03:05:09;;;;;;;;;;;;;;;27.24;32.17;95816.09;6172079;28;19929;-71
2023/07/12 03:08:13;;;;;;;;;;;;;;;27.37;32.12;95823.97;6154432;28;20408;-70
2023/07/12 03:11:16;;;;;;;;;;;;;;;27.45;32.26;95836.34;6172301;28;19926;-70
2023/07/12 03:14:21;;;;;;;;;;;;;;;27.13;33.12;95871.66;6172136;28;19922;-71
2023/07/12 03:17:23;;;;;;;;;;;;;;;26.90;33.72;95871.56;6172326;28;20292;-71
2023/07/12 03:20:26;;;;;;;;;;;;;;;26.71;34.20;95878.84;6171883;28;20307;-70
2023/07/12 03:23:28;;;;;;;;;;;;;;;26.60;34.66;95899.28;6172007;28;20008;-71
2023/07/12 03:26:30;;;;;;;;;;;;;;;26.33;35.31;95904.94;6171598;28;19921;-70
2023/07/12 03:29:31;;;;;;;;;;;;;;;26.22;35.84;95913.75;6154875;28;19945;-71
2023/07/12 03:32:32;;;;;;;;;;;;;;;26.13;36.47;95942.03;6171007;28;20351;-70
2023/07/12 03:35:37;;;;;;;;;;;;;;;26.33;37.68;95953.47;6172007;28;19922;-71
2023/07/12 03:38:39;;;;;;;;;;;;;;;26.20;38.95;95959.78;6172432;28;20497;-70
2023/07/12 03:41:40;;;;;;;;;;;;;;;25.93;40.00;95969.97;6170725;28;19922;-70
2023/07/12 03:44:44;;;;;;;;;;;;;;;26.27;40.80;95965.16;6171819;28;19929;-70
2023/07/12 03:47:50;;;;;;;;;;;;;;;26.24;41.69;95960.16;6174738;28;19922;-71
2023/07/12 03:50:57;;;;;;;;;;;;;;;26.36;41.75;95963.81;6176573;28;20397;-71
2023/07/12 03:54:00;;;;;;;;;;;;;;;26.58;41.89;95958.03;6175943;28;20398;-70
2023/07/12 03:57:04;;;;;;;;;;;;;;;26.65;42.06;95951.53;6176415;28;19922;-71
2023/07/12 04:00:08;;;;;;;;;;;;;;;26.73;42.52;95931.53;6176240;28;19972;-70
2023/07/12 04:03:15;;;;;;;;;;;;;;;26.97;42.79;95946.00;6176367;28;19921;-71
2023/07/12 04:06:19;;;;;;;;;;;;;;;26.88;43.36;95960.84;6176367;28;19917;-72
2023/07/12 04:09:22;;;;;;;;;;;;;;;26.77;44.05;95953.50;6176520;28;20016;-71
2023/07/12 04:12:28;;;;;;;;;;;;;;;26.75;44.17;95961.84;6176188;28;19918;-74
2023/07/12 04:15:32;;;;;;;;;;;;;;;26.63;44.58;95942.81;6176015;28;20016;-72
2023/07/12 04:18:33;;;;;;;;;;;;;;;26.42;45.21;95972.91;6157855;28;19922;-71
2023/07/12 04:21:39;;;;;;;;;;;;;;;26.40;45.70;95986.59;6175567;28;19922;-71
2023/07/12 04:24:43;;;;;;;;;;;;;;;26.18;46.95;96006.88;6175807;28;19922;-71
2023/07/12 04:27:44;;;;;;;;;;;;;;;26.11;48.06;96019.59;6175357;28;20403;-72
2023/07/12 04:30:46;;;;;;;;;;;;;;;26.18;48.27;96020.38;6175550;28;20462;-71
2023/07/12 04:33:49;;;;;;;;;;;;;;;25.84;48.95;96017.06;6174865;28;20450;-70
2023/07/12 04:36:53;;;;;;;;;;;;;;;25.31;50.23;96010.06;6175066;28;20016;-72
2023/07/12 04:39:56;;;;;;;;;;;;;;;24.78;52.77;95998.56;6174724;28;19926;-71
2023/07/12 04:43:03;;;;;;;;;;;;;;;24.36;54.41;95977.28;6174688;28;19922;-71
2023/07/12 04:46:09;;;;;;;;;;;;;;;24.31;54.90;95960.94;6175065;28;19922;-71
2023/07/12 04:49:13;;;;;;;;;;;;;;;24.73;53.45;95968.78;6175181;28;20388;-70
2023/07/12 04:52:17;;;;;;;;;;;;;;;25.37;52.01;96012.94;6175057;28;20008;-71
2023/07/12 04:55:21;;;;;;;;;;;;;;;25.31;51.74;96036.16;6174321;28;19937;-71
2023/07/12 04:58:26;;;;;;;;;;;;;;;25.35;51.77;96058.91;6173278;28;19921;-71
2023/07/12 05:01:28;;;;;;;;;;;;;;;25.71;51.86;96063.75;6157316;28;19922;-70
2023/07/12 05:04:35;;;;;;;;;;;;;;;26.08;50.71;96047.81;6174573;28;19926;-72
2023/07/12 05:07:36;;;;;;;;;;;;;;;26.24;50.19;96041.06;6173562;28;20339;-71
2023/07/12 05:10:40;;;;;;;;;;;;;;;26.72;49.58;96040.50;6157077;28;20008;-71
2023/07/12 05:13:44;;;;;;;;;;;;;;;27.15;48.77;96052.34;6174140;28;19922;-71
2023/07/12 05:16:45;;;;;;;;;;;;;;;27.42;48.19;96056.44;6174279;28;19933;-72
2023/07/12 05:19:49;;;;;;;;;;;;;;;27.44;48.31;96048.13;6173755;28;20344;-72
2023/07/12 05:22:50;;;;;;;;;;;;;;;27.57;48.14;96050.66;6173575;28;19922;-72
2023/07/12 05:25:52;;;;;;;;;;;;;;;27.55;47.19;96031.16;6173753;28;19929;-71
2023/07/12 05:28:53;;;;;;;;;;;;;;;27.45;47.64;96036.25;6173857;28;19921;-71
2023/07/12 05:31:58;;;;;;;;;;;;;;;27.28;47.88;96031.47;6173000;28;20000;-71
2023/07/12 05:35:00;;;;;;;;;;;;;;;27.41;47.32;96035.09;6172046;28;20383;-71
2023/07/12 05:38:04;;;;;;;;;;;;;;;27.71;45.93;96037.81;6173950;28;19922;-71
2023/07/12 05:41:07;;;;;;;;;;;;;;;27.82;46.12;96047.06;6173775;28;20025;-71
2023/07/12 05:44:08;;;;;;;;;;;;;;;27.94;45.79;96056.03;6173165;28;19969;-71
2023/07/12 05:47:15;;;;;;;;;;;;;;;27.97;45.58;96050.19;6174108;28;19922;-71
2023/07/12 05:50:18;;;;;;;;;;;;;;;27.58;46.38;96052.31;6173666;28;19926;-71
2023/07/12 05:53:19;;;;;;;;;;;;;;;27.38;47.40;96057.16;6172658;28;19922;-71
2023/07/12 05:56:23;;;;;;;;;;;;;;;27.15;48.86;96058.59;6156138;28;19929;-71
2023/07/12 05:59:24;;;;;;;;;;;;;;;26.03;52.40;96065.69;6172837;28;19922;-70
2023/07/12 06:02:28;;;;;;;;;;;;;;;25.22;55.77;96029.31;6173384;28;19925;-71
2023/07/12 06:05:32;;;;;;;;;;;;;;;24.13;58.56;95975.00;6156171;28;19922;-69
2023/07/12 06:08:36;;;;;;;;;;;;;;;23.62;60.05;95956.72;6173165;28;20025;-71
2023/07/12 06:11:40;;;;;;;;;;;;;;;24.06;60.04;95968.81;6172099;28;19922;-71
2023/07/12 06:14:42;;;;;;;;;;;;;;;24.33;59.63;95980.38;6173034;28;19922;-72
2023/07/12 06:17:48;;;;;;;;;;;;;;;25.15;57.32;95996.22;6172192;28;19922;-72
2023/07/12 06:20:55;;;;;;;;;;;;;;;25.94;55.47;96003.94;6172872;28;19922;-71
2023/07/12 06:23:59;;;;;;;;;;;;;;;26.27;53.97;95994.81;6173182;28;19921;-70
2023/07/12 06:27:03;;;;;;;;;;;;;;;26.48;53.15;96008.97;6172839;28;20331;-70
2023/07/12 06:30:05;;;;;;;;;;;;;;;26.20;53.94;96007.50;6155329;28;19926;-71
2023/07/12 06:33:07;;;;;;;;;;;;;;;26.01;55.10;96046.22;6155318;28;19929;-71
2023/07/12 06:36:08;;;;;;;;;;;;;;;25.07;58.16;96057.28;6172404;28;19922;-70
2023/07/12 06:39:12;;;;;;;;;;;;;;;24.45;61.13;96058.59;6172847;28;19922;-72
2023/07/12 06:42:13;;;;;;;;;;;;;;;24.14;62.67;96076.09;6172581;28;19922;-71
2023/07/12 06:45:16;;;;;;;;;;;;;;;23.52;65.57;96066.38;6172600;28;19962;-71
2023/07/12 06:48:20;;;;;;;;;;;;;;;23.31;67.74;96048.53;6172451;28;19937;-72
2023/07/12 06:51:24;;;;;;;;;;;;;;;23.16;68.58;96043.28;6172621;28;19922;-72
2023/07/12 06:54:28;;;;;;;;;;;;;;;22.93;69.23;96037.31;6172543;28;19977;-71
2023/07/12 06:57:33;;;;;;;;;;;;;;;23.38;67.63;96037.81;6172122;28;19926;-70
2023/07/12 07:00:38;;;;;;;;;;;;;;;23.64;67.22;96037.94;6154895;28;19922;-70
2023/07/12 07:03:43;;;;;;;;;;;;;;;23.90;66.26;96039.06;6172226;28;20028;-72
2023/07/12 07:06:48;;;;;;;;;;;;;;;24.20;65.18;96039.50;6172377;28;19933;-72
2023/07/12 07:09:52;;;;;;;;;;;;;;;24.88;62.59;96052.75;6171492;28;19922;-71
2023/07/12 07:12:56;;;;;;;;;;;;;;;25.21;61.29;96065.38;6172328;28;20017;-73
2023/07/12 07:15:57;;;;;;;;;;;;;;;25.00;61.78;96074.50;6172267;28;20425;-71
2023/07/12 07:19:00;;;;;;;;;;;;;;;24.71;61.12;96063.13;6171036;28;20411;-71
2023/07/12 07:22:06;;;;;;;;;;;;;;;24.63;60.47;96036.47;6174167;28;19941;-71
2023/07/12 07:25:09;;;;;;;;;;;;;;;23.88;62.29;96035.75;6177000;28;19922;-71
2023/07/12 07:28:15;;;;;;;;;;;;;;;23.37;63.61;96039.66;6176938;28;20396;-71
2023/07/12 07:31:18;;;;;;;;;;;;;;;23.33;63.40;96034.91;6176434;28;19926;-71
2023/07/12 07:34:22;;;;;;;;;;;;;;;23.52;63.40;96047.56;6176332;28;19922;-73
2023/07/12 07:37:23;;;;;;;;;;;;;;;23.44;63.23;96045.06;6176448;28;19922;-70
2023/07/12 07:40:29;;;;;;;;;;;;;;;23.56;62.82;96059.59;6176788;28;19922;-71
2023/07/12 07:43:30;;;;;;;;;;;;;;;23.49;62.20;96074.81;6176377;28;20315;-71
2023/07/12 07:46:33;;;;;;;;;;;;;;;23.31;63.24;96068.13;6176527;28;19933;-71
2023/07/12 07:49:38;;;;;;;;;;;;;;;23.19;62.85;96075.09;6176283;28;19922;-70
2023/07/12 07:52:39;;;;;;;;;;;;;;;22.91;63.83;96101.09;6175454;28;20064;-70
2023/07/12 07:55:44;;;;;;;;;;;;;;;23.00;62.99;96113.38;6175804;28;19925;-72
2023/07/12 07:58:48;;;;;;;;;;;;;;;22.71;64.30;96117.88;6176374;28;19922;-70
2023/07/12 08:01:49;;;;;;;;;;;;;;;22.38;66.05;96126.44;6176168;28;19921;-70
2023/07/12 08:04:50;;;;;;;;;;;;;;;21.72;69.08;96109.63;6176072;28;20364;-70
2023/07/12 08:07:55;;;;;;;;;;;;;;;21.53;69.98;96106.50;6175956;28;19926;-71
2023/07/12 08:10:58;;;;;;;;;;;;;;;21.19;70.06;96092.84;6175457;28;19922;-70
2023/07/12 08:14:04;;;;;;;;;;;;;;;21.35;70.88;96108.72;6175865;28;19922;-70
2023/07/12 08:17:05;;;;;;;;;;;;;;;20.88;70.61;96093.84;6175484;28;19926;-72
2023/07/12 08:20:09;;;;;;;;;;;;;;;20.65;72.73;96101.09;6175558;28;19922;-71
2023/07/12 08:23:15;;;;;;;;;;;;;;;20.99;72.04;96119.31;6175349;28;19922;-70
2023/07/12 08:26:21;;;;;;;;;;;;;;;21.13;71.50;96126.50;6175663;28;19922;-71
2023/07/12 08:29:26;;;;;;;;;;;;;;;21.07;71.06;96138.78;6175601;28;19926;-71
2023/07/12 08:32:33;;;;;;;;;;;;;;;20.88;71.83;96130.44;6175353;28;19922;-71
2023/07/12 08:35:34;;;;;;;;;;;;;;;20.89;70.58;96135.63;6157928;28;19922;-71
2023/07/12 08:38:40;;;;;;;;;;;;;;;20.59;70.25;96140.88;6174277;28;20408;-71
2023/07/12 08:41:43;;;;;;;;;;;;;;;20.36;69.62;96174.78;6175457;28;19922;-70
2023/07/12 08:44:45;;;;;;;;;;;;;;;20.19;69.24;96214.94;6175227;28;19929;-69
2023/07/12 08:47:50;;;;;;;;;;;;;;;20.25;69.65;96239.28;6175437;28;20395;-71
2023/07/12 08:50:54;;;;;;;;;;;;;;;19.96;70.49;96251.44;6175273;28;20311;-70
2023/07/12 08:53:59;;;;;;;;;;;;;;;19.81;70.94;96253.16;6175297;28;19922;-70
2023/07/12 08:57:20;;;;;;;;;;;;;;;19.36;71.93;96254.56;6175044;28;19949;-71
2023/07/12 09:00:23;;;;;;;;;;;;;;;19.37;72.96;96256.25;6174458;28;20028;-72
2023/07/12 09:03:29;;;;;;;;;;;;;;;19.12;74.18;96253.59;6175253;28;20388;-74
2023/07/12 09:06:31;;;;;;;;;;;;;;;19.13;75.26;96241.94;6175170;28;20019;-76
2023/07/12 09:09:39;;;;;;;;;;;;;;;18.94;76.74;96215.59;6175553;28;19921;-74
2023/07/12 09:12:40;;;;;;;;;;;;;;;18.89;77.90;96192.13;6174797;28;19922;-74
2023/07/12 09:15:47;;;;;;;;;;;;;;;19.03;78.04;96185.28;6175220;28;19922;-73
2023/07/12 09:18:52;;;;;;;;;;;;;;;18.91;77.29;96182.16;6173900;28;19925;-72
2023/07/12 09:21:54;;;;;;;;;;;;;;;18.78;77.92;96145.34;6174398;28;20306;-72
2023/07/12 09:25:18;;;;;;;;;;;;;;;18.65;78.75;96160.13;6174306;28;19922;-71
2023/07/12 09:28:25;;;;;;;;;;;;;;;18.94;78.01;96175.63;6174399;28;19922;-71
2023/07/12 09:31:32;;;;;;;;;;;;;;;18.90;76.77;96195.63;6174212;28;19921;-71
2023/07/12 09:34:39;;;;;;;;;;;;;;;19.09;77.07;96227.28;6174267;28;20020;-71
2023/07/12 09:37:42;;;;;;;;;;;;;;;19.03;77.06;96238.63;6173769;28;19922;-71
2023/07/12 09:40:47;;;;;;;;;;;;;;;19.00;77.53;96180.31;6173278;28;19961;-71
2023/07/12 09:43:58;;;;;;;;;;;;;;;18.91;78.38;96144.81;6173534;28;19946;-70
2023/07/12 09:47:11;;;;;;;;;;;;;;;19.01;78.42;96134.78;6173863;28;20348;-70
2023/07/12 09:50:19;;;;;;;;;;;;;;;18.90;78.69;96126.31;6173734;28;20283;-70
2023/07/12 09:53:34;;;;;;;;;;;;;;;19.01;79.06;96108.13;6173391;28;19922;-71
2023/07/12 09:56:39;;;;;;;;;;;;;;;19.27;79.49;96113.22;6172883;28;19937;-70
2023/07/12 09:59:43;;;;;;;;;;;;;;;19.55;77.92;96130.63;6172546;28;19922;-71
2023/07/12 10:02:56;;;;;;;;;;;;;;;19.83;76.38;96181.75;6173494;28;20012;-69
2023/07/12 10:06:10;;;;;;;;;;;;;;;20.00;74.35;96188.66;6172762;28;20404;-69
2023/07/12 10:09:16;;;;;;;;;;;;;;;19.79;74.10;96173.25;6172581;28;20016;-70
2023/07/12 10:12:23;;;;;;;;;;;;;;;19.82;74.66;96225.47;6155530;28;19934;-70
2023/07/12 10:15:29;;;;;;;;;;;;;;;20.09;73.27;96219.66;6173260;28;20384;-71
2023/07/12 10:18:33;;;;;;;;;;;;;;;20.47;72.29;96251.88;6172529;28;19922;-70
2023/07/12 10:21:36;;;;;;;;;;;;;;;20.43;71.82;96274.59;6172531;28;20531;-70
2023/07/12 10:24:42;;;;;;;;;;;;;;;20.58;70.91;96280.91;6172551;28;20382;-72
2023/07/12 10:27:51;;;;;;;;;;;;;;;20.76;70.79;96253.03;6172982;28;19922;-71
2023/07/12 10:30:54;;;;;;;;;;;;;;;20.89;69.00;96263.97;6172395;28;20303;-70
2023/07/12 10:34:02;;;;;;;;;;;;;;;21.02;68.35;96258.84;6171957;28;19985;-71
2023/07/12 10:37:13;;;;;;;;;;;;;;;21.12;68.04;96284.50;6172810;28;19934;-71
2023/07/12 10:40:20;;;;;;;;;;;;;;;21.39;65.68;96269.75;6172633;28;19953;-70
2023/07/12 10:43:42;;;;;;;;;;;;;;;21.20;66.74;96277.28;6171971;28;19921;-71
2023/07/12 10:46:49;;;;;;;;;;;;;;;21.23;66.79;96260.84;6172522;28;19922;-70
2023/07/12 10:49:58;;;;;;;;;;;;;;;21.57;65.63;96256.03;6172506;28;20001;-72
2023/07/12 10:53:18;;;;;;;;;;;;;;;21.80;65.13;96251.44;6172215;28;19922;-71
2023/07/12 10:56:41;;;;;;;;;;;;;;;22.19;63.43;96244.97;6154819;28;20489;-71
2023/07/12 10:59:44;;;;;;;;;;;;;;;22.19;63.23;96235.09;6171797;28;19922;-72
2023/07/12 11:02:50;;;;;;;;;;;;;;;22.60;60.88;96233.69;6171677;28;20527;-71
2023/07/12 11:06:04;;;;;;;;;;;;;;;22.53;61.12;96224.72;6172069;28;19929;-71
2023/07/12 11:09:09;;;;;;;;;;;;;;;22.84;59.97;96227.97;6172372;28;19925;-70
2023/07/12 11:12:19;;;;;;;;;;;;;;;23.06;57.48;96219.91;6172455;28;19970;-70
2023/07/12 11:15:24;;;;;;;;;;;;;;;23.69;53.89;96239.59;6171992;28;20408;-72
2023/07/12 11:18:34;;;;;;;;;;;;;;;24.29;50.90;96225.63;6171644;28;19922;-71
2023/07/12 11:21:46;;;;;;;;;;;;;;;24.85;49.96;96236.16;6173021;28;20384;-72
2023/07/12 11:24:47;;;;;;;;;;;;;;;25.84;48.17;96221.88;6171691;28;20092;-71
2023/07/12 11:27:53;;;;;;;;;;;;;;;26.75;45.99;96231.72;6171357;28;19922;-72
2023/07/12 11:31:13;;;;;;;;;;;;;;;27.02;44.72;96223.44;6171250;28;19921;-72
2023/07/12 11:34:19;;;;;;;;;;;;;;;27.36;45.26;96207.81;6171586;28;19942;-72
2023/07/12 11:37:25;;;;;;;;;;;;;;;27.96;42.77;96194.53;6171263;28;20391;-73
2023/07/12 11:40:29;;;;;;;;;;;;;;;28.01;42.24;96197.41;6171109;28;19928;-71
2023/07/12 11:43:34;;;;;;;;;;;;;;;27.77;42.65;96197.22;6171230;28;19929;-71
2023/07/12 11:46:38;;;;;;;;;;;;;;;27.55;41.76;96212.22;6171618;28;19928;-71
2023/07/12 11:49:45;;;;;;;;;;;;;;;27.40;41.43;96209.00;6171842;28;20028;-71
2023/07/12 11:52:47;;;;;;;;;;;;;;;27.23;41.60;96209.59;6170719;28;19921;-71
2023/07/12 11:55:50;;;;;;;;;;;;;;;27.18;41.86;96193.22;6171044;28;19922;-72
2023/07/12 11:58:56;;;;;;;;;;;;;;;27.17;42.42;96194.25;6171653;28;19922;-72
2023/07/12 12:02:05;;;;;;;;;;;;;;;27.33;41.42;96194.75;6171743;28;19921;-70
2023/07/12 12:05:06;;;;;;;;;;;;;;;27.07;42.11;96180.41;6170916;28;19922;-71
2023/07/12 12:08:10;;;;;;;;;;;;;;;27.06;42.59;96181.44;6172598;28;19928;-72
2023/07/12 12:11:14;;;;;;;;;;;;;;;27.34;40.78;96174.78;6176077;28;19922;-72
2023/07/12 12:14:27;;;;;;;;;;;;;;;26.85;41.46;96172.66;6175833;28;19922;-72
2023/07/12 12:17:35;;;;;;;;;;;;;;;26.78;41.55;96171.91;6175446;28;20316;-72
2023/07/12 12:20:37;;;;;;;;;;;;;;;26.84;41.56;96179.13;6174088;28;20002;-72
2023/07/12 12:23:41;;;;;;;;;;;;;;;26.84;41.67;96165.63;6174803;28;20008;-74
2023/07/12 12:26:42;;;;;;;;;;;;;;;27.25;40.88;96153.47;6158097;28;19929;-73
2023/07/12 12:29:46;;;;;;;;;;;;;;;27.61;38.46;96157.25;6158321;28;20416;-71
2023/07/12 12:33:00;;;;;;;;;;;;;;;28.05;38.87;96160.72;6175468;28;19922;-73
2023/07/12 12:36:04;;;;;;;;;;;;;;;28.31;36.87;96137.09;6174836;28;19922;-74
2023/07/12 12:39:08;;;;;;;;;;;;;;;28.20;37.61;96127.91;6174730;28;20173;-72
2023/07/12 12:42:20;;;;;;;;;;;;;;;28.50;36.68;96130.59;6174757;28;19937;-71
2023/07/12 12:45:21;;;;;;;;;;;;;;;28.37;36.61;96131.59;6175011;28;20049;-73
2023/07/12 12:48:22;;;;;;;;;;;;;;;28.15;36.93;96143.97;6174330;28;19922;-73
2023/07/12 12:51:25;;;;;;;;;;;;;;;28.03;36.84;96141.22;6174391;28;19922;-72
2023/07/12 12:54:26;;;;;;;;;;;;;;;27.83;36.95;96149.56;6175245;28;19921;-72
2023/07/12 12:57:29;;;;;;;;;;;;;;;27.59;37.85;96158.53;6174456;28;19926;-72
2023/07/12 13:00:32;;;;;;;;;;;;;;;27.67;36.86;96150.97;6175033;28;19922;-74
2023/07/12 13:03:36;;;;;;;;;;;;;;;27.51;36.56;96155.06;6174444;28;20020;-72
2023/07/12 13:06:41;;;;;;;;;;;;;;;27.17;37.26;96134.81;6157636;28;20396;-73
2023/07/12 13:09:44;;;;;;;;;;;;;;;26.86;38.33;96131.16;6173826;28;19929;-72
2023/07/12 13:12:46;;;;;;;;;;;;;;;27.00;38.15;96136.41;6173757;28;19945;-71
2023/07/12 13:15:49;;;;;;;;;;;;;;;27.12;37.80;96134.66;6174556;28;19922;-73
2023/07/12 13:18:52;;;;;;;;;;;;;;;27.63;36.76;96154.31;6173219;28;19944;-73
2023/07/12 13:21:59;;;;;;;;;;;;;;;27.54;35.64;96148.38;6174547;28;20307;-72
2023/07/12 13:25:00;;;;;;;;;;;;;;;27.20;36.55;96147.06;6173519;28;19922;-74
2023/07/12 13:28:01;;;;;;;;;;;;;;;27.09;36.79;96145.88;6173930;28;19922;-72
2023/07/12 13:31:02;;;;;;;;;;;;;;;27.21;36.59;96138.75;6173736;28;19922;-72
2023/07/12 13:34:04;;;;;;;;;;;;;;;27.31;36.86;96135.53;6173657;28;20021;-71
2023/07/12 13:37:12;;;;;;;;;;;;;;;27.62;36.64;96129.19;6156023;28;19928;-72
2023/07/12 13:40:16;;;;;;;;;;;;;;;28.27;35.51;96122.38;6173895;28;20355;-72
2023/07/12 13:43:19;;;;;;;;;;;;;;;28.35;35.47;96122.88;6156658;28;19922;-72
2023/07/12 13:46:23;;;;;;;;;;;;;;;28.37;35.19;96125.38;6173762;28;19973;-72
2023/07/12 13:49:26;;;;;;;;;;;;;;;28.16;35.96;96124.81;6173699;28;19926;-74
2023/07/12 13:52:31;;;;;;;;;;;;;;;27.99;36.37;96119.19;6173508;28;19922;-73
2023/07/12 13:55:35;;;;;;;;;;;;;;;27.87;36.31;96102.09;6173215;28;19944;-72
2023/07/12 13:58:39;;;;;;;;;;;;;;;27.50;36.89;96104.78;6173803;28;19918;-72
2023/07/12 14:01:43;;;;;;;;;;;;;;;27.36;36.77;96105.16;6173537;28;19944;-73
2023/07/12 14:04:46;;;;;;;;;;;;;;;26.98;37.86;96112.34;6173298;28;19922;-72
2023/07/12 14:07:51;;;;;;;;;;;;;;;26.88;37.84;96131.72;6173819;28;19922;-72
2023/07/12 14:10:55;;;;;;;;;;;;;;;27.15;37.16;96123.41;6156030;28;20308;-72
2023/07/12 14:13:58;;;;;;;;;;;;;;;26.93;37.43;96128.38;6156011;28;20375;-71
2023/07/12 14:17:01;;;;;;;;;;;;;;;26.92;37.78;96131.28;6173250;28;19932;-71
2023/07/12 14:20:04;;;;;;;;;;;;;;;26.81;38.25;96133.66;6172715;28;20302;-72
2023/07/12 14:23:16;;;;;;;;;;;;;;;26.84;38.33;96127.81;6173419;28;19922;-71
2023/07/12 14:26:21;;;;;;;;;;;;;;;26.83;38.28;96128.03;6173235;28;19921;-70
2023/07/12 14:29:25;;;;;;;;;;;;;;;27.14;37.53;96129.84;6172922;28;19922;-72
2023/07/12 14:32:30;;;;;;;;;;;;;;;27.18;37.58;96132.97;6172858;28;19922;-74
2023/07/12 14:35:35;;;;;;;;;;;;;;;26.90;37.78;96130.69;6155657;28;19929;-71
2023/07/12 14:38:38;;;;;;;;;;;;;;;27.03;37.63;96119.78;6172850;28;19929;-72
2023/07/12 14:41:42;;;;;;;;;;;;;;;26.97;37.46;96115.25;6172676;28;19929;-71
2023/07/12 14:44:46;;;;;;;;;;;;;;;26.68;37.64;96112.16;6172676;28;19925;-72
2023/07/12 14:47:49;;;;;;;;;;;;;;;26.56;38.24;96098.56;6172548;28;20365;-72
2023/07/12 14:50:52;;;;;;;;;;;;;;;26.42;38.61;96103.19;6172627;28;20396;-71
2023/07/12 14:53:55;;;;;;;;;;;;;;;26.01;39.20;96110.91;6172221;28;20008;-72
2023/07/12 14:56:58;;;;;;;;;;;;;;;25.75;40.05;96109.94;6155084;28;20012;-71
2023/07/12 15:00:04;;;;;;;;;;;;;;;25.70;39.94;96110.59;6172700;28;19921;-72
2023/07/12 15:03:17;;;;;;;;;;;;;;;25.79;39.67;96102.25;6172179;28;19921;-72
2023/07/12 15:06:20;;;;;;;;;;;;;;;25.70;39.57;96104.38;6155127;28;19922;-73
2023/07/12 15:09:23;;;;;;;;;;;;;;;25.47;39.88;96111.06;6172348;28;19944;-72
2023/07/12 15:12:30;;;;;;;;;;;;;;;25.44;39.80;96106.09;6172255;28;20315;-72
2023/07/12 15:15:34;;;;;;;;;;;;;;;25.16;40.25;96105.56;6171923;28;19922;-71
2023/07/12 15:18:36;;;;;;;;;;;;;;;24.95;40.78;96106.59;6154635;28;19926;-70
2023/07/12 15:21:41;;;;;;;;;;;;;;;25.05;41.15;96112.38;6172214;28;20012;-73
2023/07/12 15:24:45;;;;;;;;;;;;;;;24.93;41.51;96114.03;6172188;28;19921;-71
2023/07/12 15:27:49;;;;;;;;;;;;;;;24.63;43.18;96120.69;6171848;28;19922;-72
2023/07/12 15:30:52;;;;;;;;;;;;;;;24.69;44.86;96124.41;6154417;28;19922;-73
2023/07/12 15:33:55;;;;;;;;;;;;;;;24.20;46.27;96129.06;6153988;28;19945;-73
2023/07/12 15:36:59;;;;;;;;;;;;;;;24.04;47.43;96134.78;6172002;28;20012;-70
2023/07/12 15:40:06;;;;;;;;;;;;;;;23.83;48.55;96138.41;6171631;28;19924;-72
2023/07/12 15:43:12;;;;;;;;;;;;;;;23.91;49.68;96153.56;6173740;28;19922;-71
2023/07/12 15:46:17;;;;;;;;;;;;;;;23.57;50.58;96141.78;6176691;28;19926;-71
2023/07/12 15:49:20;;;;;;;;;;;;;;;23.61;51.92;96143.06;6176552;28;20028;-72
2023/07/12 15:52:26;;;;;;;;;;;;;;;23.38;52.59;96145.19;6176650;28;19922;-72
2023/07/12 15:55:29;;;;;;;;;;;;;;;23.26;53.34;96142.22;6158970;28;19940;-72
2023/07/12 15:58:34;;;;;;;;;;;;;;;23.38;52.61;96150.56;6176465;28;19928;-72
2023/07/12 16:01:37;;;;;;;;;;;;;;;23.02;53.37;96159.63;6176396;28;19922;-72